Strona główna
METAR-TAF:

METAR-TAF

Lotnisko :

Weno, Mikronezja

Port lotniczy Chuuk

Szerokość geograficzna: 07-28N, Długość geograficzna: 151-51E, wysokość: 3 m

Aktualna obserwacja pogody

Raport powstał 17 minut temu, godzina 18:51 UTC
Wiatr 4 kt z kierunków zmiennych
Temperatura 28°C
Wilgotność 94%
Ciśnienie 1008 hPa
Widzialność: 24.1 km
Mało chmury na wysokości 1400 ft
Rozproszone chmury na wysokości 28000 ft

METAR: PTKK 261851Z VRB04KT 15SM FEW014 SCT280 28/27 A2978 RMK SLP084 T02810269

czas: 05:08 (19:08 UTC)

Prognoza

Raport powstał 1 godzina i 38 minut temu, godzina 17:30 UTC
Prognoza ważna od 26 godzina 18 UTC do 27 godzina 18 UTC
Wiatr 5 kt z kierunków zmiennych
Widzialność: 10 km
Mało chmury na wysokości 1500 ft

TAF: PTKK 261730Z 2618/2718 VRB05KT P6SM FEW015

Obserwacja i prognoza pogody dla ponad 4000 lotnisk (raport METAR i TAF).

Dostępne stacje oznaczono żółtymi i czerwonymi punktami na mapie.

Najedź kursorem aby zobaczyć nazwę stacji.

Kliknij aby zobaczyć obserwacje i prognozy pogody.

Aby zmienić mapę: kliknij na zielony przycisk z czarnym krzyżykiem, aby powiększyć; na zielony przycisk z myślnikiem, aby pomniejszyć; na zielone strzałki, aby przejść do map sąsiednich.


METAR-TAF: